Hauptseite
METAR-TAF:

METAR-TAF

Flughäfen :

Doylestown Airport

Doylestown, Pennsylvania, Vereinigte Staaten

Breite: 40-19-48N, Länge: 075-07-21W, Höhe: 120 m

Beobachtung

Neuester Wetterbericht von vor 1 Stunde und 11 Minuten, um 21:54 UTC
Wind 5 kt aus unterschiedlichen Richtungen
Temperatur 16°C
Luftfeuchtigkeit 72%
Luftdruck 1013 hPa
Sichtweite: 16.1 km
Durchbrochene Bewölkung in der Höhe von 3400 ft
Geschlossene Wolkendecke in der Höhe von 7000 ft

METAR: KDYL 142154Z AUTO VRB05KT 10SM BKN034 OVC070 16/11 A2992 RMK AO2 SLP133 T01560106

Zeit: 19:05 (23:05 UTC)


TAF: fehlend

Wetterbeobachtungen und Prognosen von mehr als 4000 Flughäfen (METAR und TAF Bericht).

Die verfügbaren Stationen werden durch gelbe und rote Markierungen auf der Karte dargestellt.

Führen Sie die Maus auf sie, um den Namen der Station zu sehen.

Darauf klicken, um die Beobachtung von Wetterbeobachtungen und Prognosen zu sehen.

Um die Karte zu ändern : klicken Sie auf den grünen Tasten mit einem schwarzen Kreuz Zum Vergrößern, auf den grünen Button mit einem Gedankenstrich zu verkleinern, oder auf die grünen Pfeile für benachbarte Karten.


METAR-TAF: